Time;durP1;ratioP1;P1;durP2;ratioP2;P2;SDS_P1;SDS_P2;PMS_P1;PMS_P2;Temp;Humidity;BMP_temperature;BMP_pressure;BME280_temperature;BME280_humidity;BME280_pressure;Samples;Min_cycle;Max_cycle;Signal;HPM_P1;HPM_P2
2022/05/09 00:00:30;;;;;;;1.08;0.43;;;;;;;8.51;56.45;102397.28;2058690;28;20637;-63
2022/05/09 00:01:32;;;;;;;2.20;0.60;;;;;;;8.51;57.02;102399.97;2065938;28;20288;-63
2022/05/09 00:02:39;;;;;;;1.65;0.40;;;;;;;8.51;56.73;102399.97;2051985;28;20309;-63
2022/05/09 00:03:42;;;;;;;2.05;0.40;;;;;;;8.52;56.50;102398.91;2060136;28;20296;-63
2022/05/09 00:04:44;;;;;;;2.40;0.60;;;;;;;8.52;56.32;102396.25;2059886;28;20288;-63
2022/05/09 00:05:54;;;;;;;1.70;0.55;;;;;;;8.52;56.55;102393.56;2061131;28;20648;-63
2022/05/09 00:06:58;;;;;;;2.28;0.60;;;;;;;8.51;56.71;102402.66;2067634;28;20280;-63
2022/05/09 00:08:00;;;;;;;1.55;0.47;;;;;;;8.50;56.31;102401.00;2067260;28;20291;-63
2022/05/09 00:09:07;;;;;;;1.92;0.73;;;;;;;8.50;56.76;102400.19;2069200;28;20636;-63
2022/05/09 00:10:16;;;;;;;3.45;0.60;;;;;;;8.49;56.75;102404.72;2068520;28;20281;-63
2022/05/09 00:11:24;;;;;;;5.05;0.68;;;;;;;8.48;56.32;102397.72;2068453;28;20640;-63
2022/05/09 00:12:27;;;;;;;1.38;0.60;;;;;;;8.51;57.04;102404.47;2068256;28;20284;-63
2022/05/09 00:13:29;;;;;;;3.72;0.52;;;;;;;8.50;57.15;102402.84;2060348;28;20313;-63
2022/05/09 00:14:35;;;;;;;2.05;0.68;;;;;;;8.45;56.84;102400.84;2059862;28;20962;-63
2022/05/09 00:15:37;;;;;;;3.63;0.50;;;;;;;8.45;56.85;102395.47;2063952;28;20293;-63
2022/05/09 00:16:41;;;;;;;2.58;0.60;;;;;;;8.45;56.89;102394.63;2064077;28;20284;-63
2022/05/09 00:17:48;;;;;;;2.75;0.70;;;;;;;8.45;56.81;102394.63;2068062;28;20284;-63
2022/05/09 00:18:53;;;;;;;2.13;0.70;;;;;;;8.47;56.84;102397.94;2064828;28;20293;-63
2022/05/09 00:19:55;;;;;;;2.97;0.80;;;;;;;8.47;56.86;102392.56;2068360;28;20297;-63
2022/05/09 00:20:59;;;;;;;1.95;0.52;;;;;;;8.46;56.97;102399.78;2067867;28;20858;-63
2022/05/09 00:22:02;;;;;;;3.22;1.13;;;;;;;8.32;56.65;102404.41;2065784;28;20308;-63
2022/05/09 00:23:04;;;;;;;2.25;0.32;;;;;;;8.32;57.00;102401.75;2047221;28;20313;-63
2022/05/09 00:24:14;;;;;;;1.73;0.40;;;;;;;8.36;57.29;102402.94;2044608;28;20282;-63
2022/05/09 00:25:24;;;;;;;3.22;0.50;;;;;;;8.38;56.86;102399.22;2051981;28;20293;-63
2022/05/09 00:26:31;;;;;;;2.78;0.43;;;;;;;8.41;56.92;102404.97;2048065;28;20918;-63
2022/05/09 00:27:33;;;;;;;1.92;0.47;;;;;;;8.42;57.00;102409.31;2040308;28;20790;-63
2022/05/09 00:28:38;;;;;;;2.20;0.60;;;;;;;8.41;57.02;102404.16;2061832;28;20462;-63
2022/05/09 00:29:42;;;;;;;4.85;0.52;;;;;;;8.39;57.17;102400.91;2068058;28;20280;-64
2022/05/09 00:30:45;;;;;;;2.65;0.50;;;;;;;8.34;56.78;102409.53;2059374;28;20290;-63
2022/05/09 00:31:52;;;;;;;3.70;0.70;;;;;;;8.27;56.65;102408.78;2052821;28;20294;-63
2022/05/09 00:32:55;;;;;;;2.63;0.52;;;;;;;8.24;56.81;102407.34;2068089;28;20292;-63
2022/05/09 00:33:58;;;;;;;1.55;0.50;;;;;;;8.22;57.08;102409.41;2068785;28;20293;-63
2022/05/09 00:35:00;;;;;;;3.13;0.40;;;;;;;8.23;57.27;102412.91;2068946;28;20329;-63
2022/05/09 00:36:03;;;;;;;2.50;0.60;;;;;;;8.25;57.08;102421.56;2076029;28;20288;-63
2022/05/09 00:37:11;;;;;;;1.17;0.40;;;;;;;8.25;56.94;102413.53;2067830;28;20289;-63
2022/05/09 00:38:21;;;;;;;4.93;0.70;;;;;;;8.26;57.12;102412.47;2067966;28;20815;-63
2022/05/09 00:39:23;;;;;;;2.53;0.70;;;;;;;8.26;57.14;102409.81;2068730;28;20806;-63
2022/05/09 00:40:33;;;;;;;3.03;0.60;;;;;;;8.27;57.23;102406.91;2053261;28;20867;-63
2022/05/09 00:41:36;;;;;;;2.05;0.70;;;;;;;8.28;57.23;102407.75;2047371;28;20287;-63
2022/05/09 00:42:46;;;;;;;2.50;0.68;;;;;;;8.26;57.23;102410.66;2061070;28;20297;-64
2022/05/09 00:43:49;;;;;;;1.05;0.52;;;;;;;8.26;57.20;102407.97;2068040;28;20285;-63
2022/05/09 00:44:51;;;;;;;3.78;0.70;;;;;;;8.24;57.21;102410.03;2070122;28;20299;-63
2022/05/09 00:45:54;;;;;;;2.03;0.43;;;;;;;8.24;57.38;102414.56;2069150;28;20288;-63
2022/05/09 00:46:58;;;;;;;1.80;0.40;;;;;;;8.18;57.47;102408.22;2067824;28;20838;-63
2022/05/09 00:48:04;;;;;;;4.05;0.90;;;;;;;8.13;57.89;102408.88;2076280;28;20292;-64
2022/05/09 00:49:17;;;;;;;4.63;0.60;;;;;;;8.14;57.79;102409.69;2068609;28;20346;-63
2022/05/09 00:50:31;;;;;;;4.53;0.70;;;;;;;8.15;57.83;102415.88;2063601;28;20297;-63
2022/05/09 00:51:36;;;;;;;3.65;0.63;;;;;;;8.13;57.93;102416.06;2044607;28;20294;-64
2022/05/09 00:52:47;;;;;;;2.28;0.45;;;;;;;8.13;57.83;102416.94;2053034;28;20766;-64
2022/05/09 00:53:55;;;;;;;0.90;0.40;;;;;;;8.13;58.06;102414.25;2068897;28;20295;-64
2022/05/09 00:55:08;;;;;;;2.65;0.45;;;;;;;8.16;58.13;102417.50;2068698;28;21224;-64
2022/05/09 00:56:20;;;;;;;3.60;0.50;;;;;;;8.15;58.25;102410.53;2076171;28;20291;-64
2022/05/09 00:57:29;;;;;;;3.78;0.70;;;;;;;8.15;58.39;102415.88;2067581;28;20666;-64
2022/05/09 00:58:46;;;;;;;2.10;0.60;;;;;;;8.11;58.75;102413.63;2066737;28;20296;-64
2022/05/09 00:59:52;;;;;;;4.22;0.63;;;;;;;8.11;58.37;102412.81;2065186;28;20285;-64
2022/05/09 01:00:57;;;;;;;1.65;0.45;;;;;;;8.09;58.63;102421.06;2066714;28;20285;-64
2022/05/09 01:02:00;;;;;;;3.10;0.70;;;;;;;8.08;58.58;102422.09;2066226;28;20287;-64
2022/05/09 01:03:08;;;;;;;4.22;0.70;;;;;;;8.10;58.98;102419.19;2068730;28;20289;-64
2022/05/09 01:04:15;;;;;;;1.95;0.40;;;;;;;8.13;58.78;102427.63;2069939;28;20311;-64
2022/05/09 01:05:22;;;;;;;5.30;0.55;;;;;;;8.09;58.98;102428.28;2068355;28;20281;-64
2022/05/09 01:06:26;;;;;;;2.10;0.60;;;;;;;8.06;58.98;102426.84;2068023;28;20689;-64
2022/05/09 01:07:32;;;;;;;3.03;0.40;;;;;;;8.05;59.18;102427.88;2065015;28;20957;-64
2022/05/09 01:08:38;;;;;;;1.08;0.40;;;;;;;8.05;58.95;102427.88;2057557;28;20288;-63
2022/05/09 01:09:40;;;;;;;2.17;0.63;;;;;;;8.06;59.17;102426.84;2037644;29;20679;-63
2022/05/09 01:10:46;;;;;;;2.78;0.65;;;;;;;8.07;59.46;102425.81;2041535;28;20276;-63
2022/05/09 01:11:52;;;;;;;2.22;0.60;;;;;;;8.08;59.30;102430.13;2064218;28;20292;-64
2022/05/09 01:12:57;;;;;;;4.43;0.52;;;;;;;8.06;59.18;102424.16;2065898;28;20308;-63
2022/05/09 01:14:29;;;;;;;1.50;0.68;;;;;;;8.05;59.69;102425.22;2069643;28;20276;-63
2022/05/09 01:15:31;;;;;;;5.25;0.85;;;;;;;8.06;59.42;102424.16;2053141;28;20346;-63
2022/05/09 01:16:39;;;;;;;4.57;0.80;;;;;;;8.07;59.28;102427.66;2053112;28;20305;-63
2022/05/09 01:17:47;;;;;;;2.35;0.40;;;;;;;8.08;59.81;102432.81;2070435;28;20720;-63
2022/05/09 01:18:52;;;;;;;3.67;0.60;;;;;;;8.02;59.72;102422.97;2069738;28;20281;-63
2022/05/09 01:19:56;;;;;;;2.70;0.68;;;;;;;8.03;59.79;102424.59;2069964;28;20287;-62
2022/05/09 01:21:03;;;;;;;3.00;0.52;;;;;;;8.04;59.66;102433.44;2069702;28;20285;-62
2022/05/09 01:22:38;;;;;;;1.63;0.47;;;;;;;8.01;59.34;102426.69;2062230;28;20736;-63
2022/05/09 01:23:43;;;;;;;2.38;0.55;;;;;;;8.03;59.03;102429.94;2060642;28;20995;-62
2022/05/09 01:24:49;;;;;;;4.88;0.77;;;;;;;8.04;59.49;102426.25;2057351;28;20290;-63
2022/05/09 01:25:54;;;;;;;2.50;0.60;;;;;;;8.06;59.29;102424.16;2068552;28;20297;-63
2022/05/09 01:27:00;;;;;;;2.80;0.60;;;;;;;8.09;58.88;102423.72;2071733;28;20656;-63
2022/05/09 01:28:03;;;;;;;0.88;0.45;;;;;;;8.08;59.24;102424.78;2069574;28;20395;-63
2022/05/09 01:29:29;;;;;;;2.65;0.52;;;;;;;8.09;59.40;102429.09;2061536;28;20954;-63
2022/05/09 01:30:45;;;;;;;3.28;0.80;;;;;;;8.09;59.17;102425.59;2066654;28;20292;-62
2022/05/09 01:31:51;;;;;;;3.15;0.65;;;;;;;8.10;59.14;102428.06;2064341;28;20290;-62
2022/05/09 01:33:02;;;;;;;3.20;0.73;;;;;;;8.12;59.19;102428.66;2067105;28;20672;-62
2022/05/09 01:34:09;;;;;;;2.83;0.60;;;;;;;8.12;59.56;102434.00;2068801;28;20289;-63
2022/05/09 01:35:19;;;;;;;4.25;0.77;;;;;;;8.09;59.03;102431.75;2070120;28;20733;-63
2022/05/09 01:36:30;;;;;;;1.17;0.40;;;;;;;8.08;59.21;102435.50;2070217;28;20877;-64
2022/05/09 01:37:33;;;;;;;3.03;0.40;;;;;;;8.06;59.86;102429.53;2068934;28;20315;-64
2022/05/09 01:38:45;;;;;;;3.58;0.80;;;;;;;8.05;59.55;102427.88;2069526;28;20038;-64
2022/05/09 01:39:48;;;;;;;1.88;0.60;;;;;;;8.03;59.57;102437.97;2070265;28;20281;-63
2022/05/09 01:40:50;;;;;;;0.75;0.30;;;;;;;8.01;59.84;102437.41;2077265;28;20299;-64
2022/05/09 01:41:52;;;;;;;4.43;0.60;;;;;;;8.00;59.83;102432.25;2061338;28;20318;-63
2022/05/09 01:42:58;;;;;;;2.60;0.50;;;;;;;8.00;59.77;102432.25;2053554;28;20654;-64
2022/05/09 01:44:00;;;;;;;2.58;0.68;;;;;;;7.98;60.25;102437.81;2069441;28;20747;-63
2022/05/09 01:45:07;;;;;;;1.60;0.60;;;;;;;8.00;60.09;102433.06;2077471;28;20284;-63
2022/05/09 01:46:16;;;;;;;5.05;0.50;;;;;;;7.97;60.11;102424.63;2076908;28;20829;-64
2022/05/09 01:50:04;;;;;;;0.80;0.40;;;;;;;7.94;60.55;102428.56;2054602;28;20293;-66
2022/05/09 01:51:09;;;;;;;3.47;0.50;;;;;;;7.94;60.52;102431.25;2060942;28;20297;-67
2022/05/09 01:52:14;;;;;;;3.42;0.73;;;;;;;7.91;60.46;102431.66;2053558;28;20282;-67
2022/05/09 01:53:19;;;;;;;1.13;0.50;;;;;;;7.94;60.83;102427.75;2055149;28;20279;-68
2022/05/09 01:54:21;;;;;;;3.05;0.60;;;;;;;7.97;60.58;102430.81;2068919;28;20288;-66
2022/05/09 01:55:24;;;;;;;1.77;0.60;;;;;;;7.99;60.31;102433.28;2045357;28;20623;-66
2022/05/09 01:56:32;;;;;;;3.97;1.00;;;;;;;8.01;60.61;102432.03;2047436;28;20287;-66
2022/05/09 01:57:38;;;;;;;4.75;0.70;;;;;;;8.04;60.82;102431.63;2062097;28;20293;-66
2022/05/09 01:58:42;;;;;;;3.60;1.30;;;;;;;8.02;60.33;102436.34;2069237;28;20304;-66
2022/05/09 01:59:45;;;;;;;4.47;1.38;;;;;;;8.04;60.66;102436.13;2070503;28;20285;-66
2022/05/09 02:00:48;;;;;;;4.10;1.08;;;;;;;8.03;60.43;102429.94;2070117;28;20285;-66
2022/05/09 02:01:55;;;;;;;5.47;1.20;;;;;;;8.05;60.57;102441.28;2070390;28;20293;-65
2022/05/09 02:03:00;;;;;;;5.43;1.05;;;;;;;8.07;60.45;102431.19;2070444;28;20300;-66
2022/05/09 02:04:03;;;;;;;5.55;1.00;;;;;;;8.07;60.51;102428.50;2061818;28;20080;-65
2022/05/09 02:05:06;;;;;;;4.53;0.90;;;;;;;8.04;60.50;102428.94;2061154;28;20289;-65
2022/05/09 02:06:10;;;;;;;5.15;0.82;;;;;;;8.03;60.26;102429.94;2069229;28;20819;-65
2022/05/09 02:07:15;;;;;;;3.53;0.70;;;;;;;8.00;60.31;102429.56;2068453;28;20285;-64
2022/05/09 02:08:18;;;;;;;3.75;0.50;;;;;;;8.00;60.39;102427.69;2067791;28;20295;-64
2022/05/09 02:09:21;;;;;;;2.47;0.40;;;;;;;7.99;60.45;102428.75;2069134;28;20339;-65
2022/05/09 02:10:23;;;;;;;1.92;0.50;;;;;;;8.00;60.60;102425.03;2068992;28;20289;-65
2022/05/09 02:11:30;;;;;;;3.63;0.60;;;;;;;8.02;60.68;102431.00;2075826;28;21169;-65
2022/05/09 02:12:35;;;;;;;4.50;0.70;;;;;;;8.03;60.69;102437.97;2068594;28;20859;-64
2022/05/09 02:13:37;;;;;;;5.70;0.60;;;;;;;8.00;60.54;102438.41;2069077;28;20339;-64
2022/05/09 02:14:40;;;;;;;4.35;0.70;;;;;;;8.00;60.67;102435.72;2068685;28;20295;-64
2022/05/09 02:15:42;;;;;;;3.67;0.70;;;;;;;7.99;60.31;102428.75;2069357;28;20280;-64
2022/05/09 02:16:47;;;;;;;2.28;0.32;;;;;;;8.01;60.17;102426.69;2069954;28;20289;-65
2022/05/09 02:17:49;;;;;;;5.57;0.57;;;;;;;8.01;60.05;102437.41;2068890;28;20300;-64
2022/05/09 02:18:54;;;;;;;6.65;0.77;;;;;;;8.01;60.05;102428.53;2052623;28;20290;-64
2022/05/09 02:19:59;;;;;;;6.10;0.70;;;;;;;8.00;59.93;102426.88;2046070;28;20318;-64
2022/05/09 02:21:02;;;;;;;1.85;0.60;;;;;;;8.00;59.82;102429.56;2060988;28;20312;-64
2022/05/09 02:22:08;;;;;;;2.47;0.50;;;;;;;7.99;59.84;102434.09;2063090;28;20555;-65
2022/05/09 02:23:12;;;;;;;2.40;0.70;;;;;;;7.98;59.77;102435.16;2064466;28;20311;-65
2022/05/09 02:24:14;;;;;;;4.25;1.17;;;;;;;7.94;59.59;102436.59;2077038;28;20743;-66
2022/05/09 02:25:29;;;;;;;3.33;0.50;;;;;;;7.96;59.56;102434.53;2068406;28;20289;-65
2022/05/09 02:26:32;;;;;;;3.72;0.47;;;;;;;7.92;59.63;102446.72;2069115;28;20289;-66
2022/05/09 02:27:38;;;;;;;2.95;0.65;;;;;;;7.91;59.55;102434.34;2072139;28;20287;-64
2022/05/09 02:28:43;;;;;;;2.28;0.50;;;;;;;7.92;59.45;102440.53;2076052;28;21716;-63
2022/05/09 02:29:46;;;;;;;0.88;0.40;;;;;;;7.90;59.64;102440.75;2059916;28;21130;-63
2022/05/09 02:30:49;;;;;;;3.78;0.60;;;;;;;7.92;59.54;102441.38;2065227;28;20281;-63
2022/05/09 02:31:52;;;;;;;7.00;0.60;;;;;;;7.96;59.38;102437.22;2069093;28;20281;-64
2022/05/09 02:32:54;;;;;;;2.70;0.65;;;;;;;7.97;59.36;102443.38;2068938;28;20296;-64
2022/05/09 02:33:56;;;;;;;3.25;0.47;;;;;;;7.97;58.82;102446.06;2069411;28;20297;-64
2022/05/09 02:35:02;;;;;;;2.67;0.63;;;;;;;7.96;58.75;102439.88;2069517;28;20648;-63
2022/05/09 02:36:05;;;;;;;2.50;0.63;;;;;;;7.94;58.87;102441.94;2063255;28;20305;-64
2022/05/09 02:37:07;;;;;;;3.33;0.50;;;;;;;7.94;58.74;102447.31;2078019;28;20299;-63
2022/05/09 02:38:11;;;;;;;0.98;0.30;;;;;;;7.95;58.47;102440.94;2069278;28;20494;-64
2022/05/09 02:39:13;;;;;;;3.25;0.55;;;;;;;7.91;58.53;102453.09;2068647;28;20347;-64
2022/05/09 02:40:17;;;;;;;4.55;0.60;;;;;;;7.89;58.22;102449.81;2068452;28;20300;-65
2022/05/09 02:41:22;;;;;;;1.63;0.47;;;;;;;7.88;58.11;102451.69;2061183;28;20273;-64
2022/05/09 02:42:25;;;;;;;1.35;0.40;;;;;;;7.88;57.81;102453.53;2053603;28;20297;-64
2022/05/09 02:43:35;;;;;;;1.33;0.68;;;;;;;7.89;57.89;102453.31;2054530;28;20329;-64
2022/05/09 02:44:38;;;;;;;2.58;0.40;;;;;;;7.88;57.70;102451.69;2061038;28;20844;-63
2022/05/09 02:45:48;;;;;;;3.38;0.40;;;;;;;7.81;57.50;102453.56;2061447;28;20725;-64
2022/05/09 02:46:50;;;;;;;5.68;0.60;;;;;;;7.80;57.81;102456.47;2061473;28;20300;-64
2022/05/09 02:47:53;;;;;;;3.70;0.47;;;;;;;7.76;57.62;102456.06;2060479;28;20757;-64
2022/05/09 02:48:59;;;;;;;0.70;0.40;;;;;;;7.74;57.48;102458.13;2060738;28;20293;-64
2022/05/09 02:50:05;;;;;;;3.20;0.60;;;;;;;7.73;57.37;102455.69;2060799;28;20304;-64
2022/05/09 02:51:13;;;;;;;3.47;0.35;;;;;;;7.76;57.30;102458.75;2063013;28;20339;-63
2022/05/09 02:52:15;;;;;;;3.30;0.77;;;;;;;7.75;57.17;102457.09;2066573;28;20307;-64
2022/05/09 02:53:19;;;;;;;1.95;0.50;;;;;;;7.73;57.29;102456.50;2061104;28;21203;-63
2022/05/09 02:54:27;;;;;;;2.72;0.50;;;;;;;7.77;56.79;102462.25;2053619;28;20782;-64
2022/05/09 02:55:31;;;;;;;2.90;0.45;;;;;;;7.79;56.71;102469.03;2061758;28;20811;-65
2022/05/09 02:56:33;;;;;;;4.28;0.68;;;;;;;7.77;56.53;102455.03;2060777;28;20773;-64
2022/05/09 02:57:40;;;;;;;2.50;0.60;;;;;;;7.83;56.39;102462.22;2061086;28;20308;-64
2022/05/09 02:58:44;;;;;;;2.67;0.60;;;;;;;7.83;56.23;102461.38;2060477;28;20297;-64
2022/05/09 02:59:49;;;;;;;1.48;0.60;;;;;;;7.82;55.99;102459.75;2052247;28;20301;-64
2022/05/09 03:00:56;;;;;;;2.40;0.60;;;;;;;7.82;56.09;102465.94;2067947;28;20285;-64
2022/05/09 03:02:01;;;;;;;2.20;0.60;;;;;;;7.85;55.96;102462.00;2061427;28;20290;-64
2022/05/09 03:04:39;;;;;;;3.00;1.35;;;;;;;7.92;55.51;102465.47;2063481;28;20296;-64
2022/05/09 03:05:48;;;;;;;1.13;0.30;;;;;;;7.94;55.37;102468.72;2067351;28;20296;-68
2022/05/09 03:07:01;;;;;;;5.00;0.75;;;;;;;7.97;55.17;102462.94;2054865;28;20286;-70
2022/05/09 03:08:08;;;;;;;1.80;0.50;;;;;;;7.99;55.64;102466.25;2054730;28;20043;-64
2022/05/09 03:09:13;;;;;;;2.58;0.70;;;;;;;8.01;55.19;102469.53;2048398;28;20054;-64
2022/05/09 03:10:15;;;;;;;1.42;0.60;;;;;;;8.06;55.11;102469.69;2054505;28;20345;-65
2022/05/09 03:11:18;;;;;;;4.22;0.47;;;;;;;8.09;54.90;102465.78;2054911;28;20821;-64
2022/05/09 03:12:26;;;;;;;2.00;0.60;;;;;;;8.15;55.04;102474.81;2054548;28;20710;-64
2022/05/09 03:13:29;;;;;;;2.05;0.43;;;;;;;8.16;54.76;102465.75;2055221;28;20282;-64
2022/05/09 03:14:35;;;;;;;1.02;0.50;;;;;;;8.19;54.13;102468.81;2061877;28;20281;-64
2022/05/09 03:15:41;;;;;;;6.15;0.77;;;;;;;8.23;54.51;102474.53;2068214;28;20280;-64
2022/05/09 03:16:44;;;;;;;1.67;0.60;;;;;;;8.22;54.53;102467.56;2066446;28;20357;-64
2022/05/09 03:17:46;;;;;;;1.45;0.60;;;;;;;8.26;54.79;102471.44;2060208;28;20296;-64
2022/05/09 03:18:48;;;;;;;4.63;0.60;;;;;;;8.27;54.84;102473.91;2041744;28;20300;-64
2022/05/09 03:19:50;;;;;;;0.40;0.30;;;;;;;8.29;54.42;102473.69;2043976;28;20303;-64
2022/05/09 03:20:52;;;;;;;3.15;0.70;;;;;;;8.29;54.28;102477.22;2060752;28;20681;-64
2022/05/09 03:21:55;;;;;;;5.40;0.80;;;;;;;8.32;54.47;102475.94;2068025;28;20293;-64
2022/05/09 03:22:57;;;;;;;4.60;0.65;;;;;;;8.27;54.83;102470.41;2066011;28;20295;-64
2022/05/09 03:23:59;;;;;;;2.05;0.50;;;;;;;8.34;54.54;102476.56;2068669;28;20336;-64
2022/05/09 03:25:02;;;;;;;3.22;0.75;;;;;;;8.39;54.56;102476.78;2060314;28;20297;-64
2022/05/09 03:26:05;;;;;;;3.88;1.02;;;;;;;8.45;54.06;102473.22;2063996;28;20312;-64
2022/05/09 03:27:12;;;;;;;5.60;0.95;;;;;;;8.50;53.38;102483.28;2066313;28;20292;-63
2022/05/09 03:28:19;;;;;;;5.80;0.90;;;;;;;8.52;53.29;102479.34;2066900;28;20648;-64
2022/05/09 03:29:24;;;;;;;3.42;1.17;;;;;;;8.58;53.16;102478.47;2069440;28;20677;-63
2022/05/09 03:30:26;;;;;;;2.92;0.90;;;;;;;8.64;52.92;102479.47;2068000;28;21097;-63
2022/05/09 03:31:32;;;;;;;4.28;1.05;;;;;;;8.70;52.54;102483.13;2060775;28;20729;-63
2022/05/09 03:32:39;;;;;;;2.80;1.00;;;;;;;8.80;52.21;102489.66;2063541;28;20300;-64
2022/05/09 03:33:41;;;;;;;3.58;0.70;;;;;;;8.88;52.61;102485.84;2069386;28;20296;-63
2022/05/09 03:34:46;;;;;;;2.70;0.80;;;;;;;8.85;51.34;102491.66;2069717;28;20746;-64
2022/05/09 03:35:50;;;;;;;5.75;0.77;;;;;;;8.86;51.75;102490.66;2068423;28;20692;-63
2022/05/09 03:36:52;;;;;;;3.20;0.80;;;;;;;8.92;51.13;102496.97;2068164;28;20284;-63
2022/05/09 03:37:55;;;;;;;1.95;0.88;;;;;;;9.00;51.09;102488.66;2061695;28;20293;-63
2022/05/09 03:38:57;;;;;;;1.30;0.60;;;;;;;9.03;51.05;102491.72;2053143;28;20301;-63
2022/05/09 03:39:59;;;;;;;2.75;0.60;;;;;;;9.11;51.06;102484.41;2046599;28;20362;-64
2022/05/09 03:41:04;;;;;;;1.02;0.60;;;;;;;9.16;51.17;102488.09;2061109;28;20301;-64
2022/05/09 03:42:08;;;;;;;3.45;0.75;;;;;;;9.27;51.13;102494.59;2067550;28;20927;-64
2022/05/09 03:43:14;;;;;;;2.55;0.77;;;;;;;9.34;51.00;102489.97;2069057;28;20292;-63
2022/05/09 03:44:16;;;;;;;5.85;1.40;;;;;;;9.44;50.63;102495.63;2069842;28;20336;-63
2022/05/09 03:45:19;;;;;;;1.40;0.70;;;;;;;9.51;50.58;102495.56;2060743;28;20734;-64
2022/05/09 03:46:24;;;;;;;2.47;0.70;;;;;;;9.56;50.03;102498.41;2061439;28;20617;-64
2022/05/09 03:47:26;;;;;;;2.72;0.90;;;;;;;9.59;49.62;102492.59;2059312;28;20788;-64
2022/05/09 03:48:29;;;;;;;3.85;0.40;;;;;;;9.63;49.12;102499.16;2060755;28;20297;-64
2022/05/09 03:49:34;;;;;;;5.65;1.25;;;;;;;9.70;49.57;102501.75;2066912;28;20785;-64
2022/05/09 03:50:39;;;;;;;1.90;0.60;;;;;;;9.78;50.11;102496.09;2069358;28;21124;-64
2022/05/09 03:51:42;;;;;;;3.28;0.65;;;;;;;9.85;50.02;102502.19;2069088;28;20810;-69
2022/05/09 03:52:45;;;;;;;2.25;0.73;;;;;;;9.95;49.10;102493.59;2076477;28;20288;-63
2022/05/09 03:53:50;;;;;;;1.33;0.60;;;;;;;10.03;49.56;102492.47;2068201;28;20293;-63
2022/05/09 03:54:55;;;;;;;3.13;0.60;;;;;;;10.08;48.81;102497.97;2068122;28;20281;-64
2022/05/09 03:56:01;;;;;;;2.13;0.60;;;;;;;10.16;49.32;102498.47;2068326;28;20300;-63
2022/05/09 03:57:04;;;;;;;1.05;0.70;;;;;;;10.24;49.04;102500.00;2058509;28;20700;-65
2022/05/09 03:58:08;;;;;;;2.67;0.50;;;;;;;10.33;49.94;102495.16;2057138;28;20294;-65
2022/05/09 03:59:11;;;;;;;6.32;0.80;;;;;;;10.36;49.07;102500.91;2061381;28;20290;-65
2022/05/09 04:00:21;;;;;;;1.52;0.65;;;;;;;10.36;49.16;102497.41;2064367;28;20304;-65
2022/05/09 04:01:23;;;;;;;2.03;0.63;;;;;;;10.33;48.29;102498.66;2052868;28;20297;-63
2022/05/09 04:02:24;;;;;;;3.20;0.75;;;;;;;10.34;48.72;102494.97;2044354;28;20059;-63
2022/05/09 04:03:31;;;;;;;2.72;0.65;;;;;;;10.42;48.88;102499.19;2050184;28;20985;-64
2022/05/09 04:04:33;;;;;;;4.10;0.93;;;;;;;10.44;49.01;102497.91;2067553;28;20293;-65
2022/05/09 04:05:36;;;;;;;2.97;1.00;;;;;;;10.41;48.94;102501.06;2067279;28;20666;-64
2022/05/09 04:06:44;;;;;;;4.53;1.13;;;;;;;10.42;48.58;102497.31;2058604;28;20289;-64
2022/05/09 04:07:49;;;;;;;2.92;0.80;;;;;;;10.47;48.71;102502.00;2062318;28;20295;-65
2022/05/09 04:08:54;;;;;;;2.08;0.90;;;;;;;10.51;48.44;102491.59;2067021;28;20284;-64
2022/05/09 04:09:59;;;;;;;1.45;0.90;;;;;;;10.50;48.51;102498.00;2067047;28;20656;-65
2022/05/09 04:11:01;;;;;;;2.13;0.73;;;;;;;10.59;48.84;102497.47;2065923;28;20351;-65
2022/05/09 04:12:10;;;;;;;3.65;0.90;;;;;;;10.69;48.48;102496.91;2067623;28;20296;-64
2022/05/09 04:13:15;;;;;;;3.20;0.80;;;;;;;10.78;48.26;102495.53;2064637;28;20282;-65
2022/05/09 04:16:49;;;;;;;3.75;1.35;;;;;;;10.81;48.23;102500.44;2068323;28;20030;-65
2022/05/09 04:17:10;;;;;;;5.38;0.77;;;;;;;11.00;47.93;102503.00;2068115;28;20300;-65
2022/05/09 04:18:16;;;;;;;1.60;0.60;;;;;;;11.05;48.03;102505.81;2068436;28;20281;-65
2022/05/09 04:19:23;;;;;;;1.15;0.63;;;;;;;11.12;46.98;102501.13;2060011;28;21077;-65
2022/05/09 04:20:29;;;;;;;0.90;0.40;;;;;;;11.21;47.27;102499.72;2054016;28;20357;-64
2022/05/09 04:21:30;;;;;;;0.80;0.50;;;;;;;11.31;48.05;102504.50;2055146;28;20317;-65
2022/05/09 04:22:40;;;;;;;3.03;0.88;;;;;;;11.49;47.47;102503.56;2054180;28;20302;-64
2022/05/09 04:23:42;;;;;;;6.03;1.00;;;;;;;11.65;46.91;102510.09;2052775;28;21001;-64
2022/05/09 04:24:45;;;;;;;6.40;0.90;;;;;;;11.75;46.63;102497.63;2057866;28;20050;-63
2022/05/09 04:25:52;;;;;;;2.28;0.90;;;;;;;11.94;46.24;102505.59;2060103;28;20049;-65
2022/05/09 04:27:02;;;;;;;2.95;0.65;;;;;;;11.96;45.52;102503.47;2060003;28;20106;-65
2022/05/09 04:28:08;;;;;;;3.63;0.90;;;;;;;11.95;44.53;102502.66;2067737;28;20289;-65
2022/05/09 04:29:10;;;;;;;3.88;0.60;;;;;;;11.97;44.98;102505.91;2067138;28;20050;-65
2022/05/09 04:30:13;;;;;;;2.38;0.65;;;;;;;12.11;44.62;102508.34;2066439;28;20886;-63
2022/05/09 04:31:19;;;;;;;2.58;0.60;;;;;;;12.23;44.84;102507.25;2050671;28;20038;-68
2022/05/09 04:32:22;;;;;;;1.80;0.85;;;;;;;12.39;44.21;102510.19;2029904;28;20052;-66
2022/05/09 04:33:25;;;;;;;3.38;0.57;;;;;;;12.41;44.40;102508.09;2047313;28;20085;-63
2022/05/09 04:34:29;;;;;;;2.03;0.43;;;;;;;12.46;43.88;102513.56;2064083;28;20042;-63
2022/05/09 04:35:37;;;;;;;2.60;0.47;;;;;;;12.62;43.78;102514.66;2067989;28;20870;-63
2022/05/09 04:36:42;;;;;;;2.28;0.70;;;;;;;12.67;43.73;102509.31;2066838;28;20827;-64
2022/05/09 04:37:47;;;;;;;2.30;0.60;;;;;;;12.76;43.29;102508.66;2066567;28;20042;-63
2022/05/09 04:38:52;;;;;;;3.00;0.63;;;;;;;12.92;43.37;102514.31;2068330;28;20045;-63
2022/05/09 04:39:59;;;;;;;0.90;0.45;;;;;;;13.03;42.77;102512.59;2058908;28;20402;-63
2022/05/09 04:42:05;;;;;;;1.35;0.50;;;;;;;13.32;41.75;102513.31;2104441;27;20128;-63
2022/05/09 04:43:08;;;;;;;2.17;0.68;;;;;;;13.33;42.32;102517.66;2099421;28;20283;-62
2022/05/09 04:44:09;;;;;;;2.03;0.60;;;;;;;13.49;42.29;102519.50;2103332;28;20043;-61
2022/05/09 04:45:14;;;;;;;3.03;0.60;;;;;;;13.65;41.77;102515.94;2103211;28;20490;-62
2022/05/09 04:46:17;;;;;;;1.67;0.50;;;;;;;13.83;41.27;102519.38;2097611;28;20047;-62
2022/05/09 04:47:21;;;;;;;1.38;0.57;;;;;;;13.96;40.69;102524.41;2095872;28;20052;-61
2022/05/09 04:48:28;;;;;;;2.58;0.50;;;;;;;14.13;40.46;102516.22;2093165;28;20053;-61
2022/05/09 04:49:31;;;;;;;1.17;0.45;;;;;;;14.30;40.06;102518.81;2098158;28;20051;-62
2022/05/09 04:50:35;;;;;;;1.90;0.50;;;;;;;14.38;39.85;102526.47;2098235;28;20565;-63
2022/05/09 04:51:38;;;;;;;2.03;0.80;;;;;;;14.47;39.77;102516.84;2099990;28;20041;-62
2022/05/09 04:52:42;;;;;;;2.95;0.60;;;;;;;14.47;39.28;102519.53;2100606;28;20051;-63
2022/05/09 04:53:46;;;;;;;2.55;0.70;;;;;;;14.38;39.33;102516.47;2100712;28;20044;-62
2022/05/09 04:54:50;;;;;;;4.90;0.63;;;;;;;14.56;39.74;102517.19;2107197;28;20052;-63
2022/05/09 04:55:57;;;;;;;0.82;0.50;;;;;;;14.47;39.25;102521.41;2099887;28;20040;-62
2022/05/09 04:57:01;;;;;;;4.65;0.65;;;;;;;14.09;39.49;102531.31;2091844;28;20048;-62
2022/05/09 04:58:04;;;;;;;12.52;0.90;;;;;;;13.99;40.39;102523.09;2090958;28;20158;-62
2022/05/09 04:59:10;;;;;;;3.42;0.60;;;;;;;13.98;40.07;102533.09;2090325;28;20060;-62
2022/05/09 05:00:18;;;;;;;2.03;0.55;;;;;;;13.97;40.35;102526.06;2090259;28;20048;-62
2022/05/09 05:01:20;;;;;;;1.13;0.60;;;;;;;14.26;39.82;102531.22;2093290;28;20779;-62
2022/05/09 05:02:24;;;;;;;1.73;0.40;;;;;;;14.42;39.36;102524.88;2094251;28;20032;-61
2022/05/09 05:03:28;;;;;;;2.50;0.57;;;;;;;14.59;39.12;102525.59;2088807;28;20734;-62
2022/05/09 05:04:33;;;;;;;2.97;0.60;;;;;;;14.68;38.28;102530.56;2083786;28;20053;-62
2022/05/09 05:05:41;;;;;;;1.95;0.50;;;;;;;14.31;38.30;102536.69;2091677;28;20053;-63
2022/05/09 05:06:46;;;;;;;1.17;0.50;;;;;;;13.97;39.19;102531.47;2098378;28;20702;-63
2022/05/09 05:07:49;;;;;;;1.95;0.60;;;;;;;13.64;39.94;102533.22;2098802;28;20055;-64
2022/05/09 05:08:51;;;;;;;1.95;0.47;;;;;;;13.23;40.76;102532.63;2104840;28;20047;-64
2022/05/09 05:09:53;;;;;;;3.05;0.60;;;;;;;13.13;41.11;102527.06;2093371;28;20519;-63
2022/05/09 05:10:55;;;;;;;2.50;0.60;;;;;;;13.02;41.31;102530.69;2095641;28;20891;-64
2022/05/09 05:12:03;;;;;;;3.78;0.52;;;;;;;13.31;41.06;102536.81;2091658;28;20124;-64
2022/05/09 05:13:09;;;;;;;4.20;1.05;;;;;;;13.72;40.57;102528.47;2101657;28;20024;-63